sensor_id;sensor_type;location;lat;lon;timestamp;pressure;altitude;pressure_sealevel;temperature;humidity
4012;BME280;2020;48.682;9.024;2023-04-07T00:01:35;96402.09;;;4.74;93.96
4012;BME280;2020;48.682;9.024;2023-04-07T00:04:00;96404.44;;;4.66;93.62
4012;BME280;2020;48.682;9.024;2023-04-07T00:06:26;96399.88;;;4.70;93.44
4012;BME280;2020;48.682;9.024;2023-04-07T00:08:51;96397.31;;;4.70;94.07
4012;BME280;2020;48.682;9.024;2023-04-07T00:11:17;96394.13;;;4.66;93.08
4012;BME280;2020;48.682;9.024;2023-04-07T00:13:42;96401.53;;;4.71;93.42
4012;BME280;2020;48.682;9.024;2023-04-07T00:16:07;96399.16;;;4.79;93.17
4012;BME280;2020;48.682;9.024;2023-04-07T00:18:33;96401.94;;;4.87;92.56
4012;BME280;2020;48.682;9.024;2023-04-07T00:20:58;96396.34;;;4.82;91.94
4012;BME280;2020;48.682;9.024;2023-04-07T00:23:23;96394.66;;;4.92;91.14
4012;BME280;2020;48.682;9.024;2023-04-07T00:25:48;96393.28;;;4.88;91.20
4012;BME280;2020;48.682;9.024;2023-04-07T00:28:14;96386.63;;;4.74;90.97
4012;BME280;2020;48.682;9.024;2023-04-07T00:30:39;96382.75;;;4.80;91.18
4012;BME280;2020;48.682;9.024;2023-04-07T00:33:04;96384.59;;;4.89;91.56
4012;BME280;2020;48.682;9.024;2023-04-07T00:35:30;96379.34;;;4.79;90.26
4012;BME280;2020;48.682;9.024;2023-04-07T00:37:55;96382.97;;;4.88;91.12
4012;BME280;2020;48.682;9.024;2023-04-07T00:40:21;96377.44;;;4.81;91.25
4012;BME280;2020;48.682;9.024;2023-04-07T00:42:46;96383.44;;;4.82;91.49
4012;BME280;2020;48.682;9.024;2023-04-07T00:45:11;96371.00;;;4.87;91.54
4012;BME280;2020;48.682;9.024;2023-04-07T00:47:37;96365.09;;;4.96;90.87
4012;BME280;2020;48.682;9.024;2023-04-07T00:50:03;96369.13;;;4.89;90.24
4012;BME280;2020;48.682;9.024;2023-04-07T00:52:31;96362.31;;;4.88;89.91
4012;BME280;2020;48.682;9.024;2023-04-07T00:54:57;96362.63;;;4.95;89.78
4012;BME280;2020;48.682;9.024;2023-04-07T00:57:23;96352.66;;;5.02;90.87
4012;BME280;2020;48.682;9.024;2023-04-07T00:59:50;96359.66;;;5.11;90.86
4012;BME280;2020;48.682;9.024;2023-04-07T01:02:20;96360.84;;;5.07;90.41
4012;BME280;2020;48.682;9.024;2023-04-07T01:05:00;96350.28;;;5.10;89.17
4012;BME280;2020;48.682;9.024;2023-04-07T01:07:46;96347.91;;;5.18;88.77
4012;BME280;2020;48.682;9.024;2023-04-07T01:10:18;96339.75;;;5.23;88.45
4012;BME280;2020;48.682;9.024;2023-04-07T01:12:56;96342.72;;;5.18;88.92
4012;BME280;2020;48.682;9.024;2023-04-07T01:15:29;96342.41;;;5.11;89.38
4012;BME280;2020;48.682;9.024;2023-04-07T01:18:05;96335.69;;;5.20;89.33
4012;BME280;2020;48.682;9.024;2023-04-07T01:20:32;96335.69;;;5.20;89.53
4012;BME280;2020;48.682;9.024;2023-04-07T01:23:03;96328.06;;;5.19;89.09
4012;BME280;2020;48.682;9.024;2023-04-07T01:31:20;96325.13;;;5.23;88.84
4012;BME280;2020;48.682;9.024;2023-04-07T01:33:48;96328.38;;;5.25;88.50
4012;BME280;2020;48.682;9.024;2023-04-07T01:36:15;96322.97;;;5.29;88.80
4012;BME280;2020;48.682;9.024;2023-04-07T01:38:41;96321.09;;;5.31;88.91
4012;BME280;2020;48.682;9.024;2023-04-07T01:41:08;96323.78;;;5.29;88.32
4012;BME280;2020;48.682;9.024;2023-04-07T01:43:36;96321.34;;;5.27;86.65
4012;BME280;2020;48.682;9.024;2023-04-07T01:46:03;96322.03;;;5.30;87.47
4012;BME280;2020;48.682;9.024;2023-04-07T01:48:29;96320.50;;;5.27;86.32
4012;BME280;2020;48.682;9.024;2023-04-07T01:50:56;96318.06;;;5.25;87.54
4012;BME280;2020;48.682;9.024;2023-04-07T01:53:23;96315.22;;;5.29;86.31
4012;BME280;2020;48.682;9.024;2023-04-07T01:55:51;96309.13;;;5.30;86.16
4012;BME280;2020;48.682;9.024;2023-04-07T01:58:17;96315.34;;;5.27;86.37
4012;BME280;2020;48.682;9.024;2023-04-07T02:00:42;96306.19;;;5.34;86.04
4012;BME280;2020;48.682;9.024;2023-04-07T02:03:11;96311.28;;;5.24;85.59
4012;BME280;2020;48.682;9.024;2023-04-07T02:05:44;96308.94;;;5.21;86.02
4012;BME280;2020;48.682;9.024;2023-04-07T02:08:10;96312.91;;;5.25;86.88
4012;BME280;2020;48.682;9.024;2023-04-07T02:10:37;96310.06;;;5.07;87.09
4012;BME280;2020;48.682;9.024;2023-04-07T02:13:05;96297.84;;;5.09;87.25
4012;BME280;2020;48.682;9.024;2023-04-07T02:15:31;96301.69;;;5.15;87.37
4012;BME280;2020;48.682;9.024;2023-04-07T02:17:58;96301.44;;;5.18;87.80
4012;BME280;2020;48.682;9.024;2023-04-07T02:20:24;96292.50;;;5.22;86.91
4012;BME280;2020;48.682;9.024;2023-04-07T02:22:50;96295.72;;;5.15;86.13
4012;BME280;2020;48.682;9.024;2023-04-07T02:25:25;96289.66;;;5.04;87.40
4012;BME280;2020;48.682;9.024;2023-04-07T02:27:52;96290.50;;;5.05;88.39
4012;BME280;2020;48.682;9.024;2023-04-07T02:30:17;96287.91;;;5.05;88.02
4012;BME280;2020;48.682;9.024;2023-04-07T02:32:43;96278.53;;;5.04;88.84
4012;BME280;2020;48.682;9.024;2023-04-07T02:35:09;96286.84;;;5.07;89.12
4012;BME280;2020;48.682;9.024;2023-04-07T02:37:34;96283.19;;;5.10;88.52
4012;BME280;2020;48.682;9.024;2023-04-07T02:39:59;96276.41;;;5.09;88.14
4012;BME280;2020;48.682;9.024;2023-04-07T02:42:25;96269.34;;;5.11;88.30
4012;BME280;2020;48.682;9.024;2023-04-07T02:44:50;96269.09;;;5.14;88.30
4012;BME280;2020;48.682;9.024;2023-04-07T02:47:16;96261.81;;;5.19;87.69
4012;BME280;2020;48.682;9.024;2023-04-07T02:49:41;96263.44;;;5.20;87.27
4012;BME280;2020;48.682;9.024;2023-04-07T02:52:06;96268.78;;;5.07;86.53
4012;BME280;2020;48.682;9.024;2023-04-07T02:54:31;96267.97;;;5.07;88.05
4012;BME280;2020;48.682;9.024;2023-04-07T02:56:57;96262.56;;;5.10;88.15
4012;BME280;2020;48.682;9.024;2023-04-07T02:59:22;96259.59;;;5.15;88.10
4012;BME280;2020;48.682;9.024;2023-04-07T03:01:47;96256.75;;;5.18;86.90
4012;BME280;2020;48.682;9.024;2023-04-07T03:04:13;96263.28;;;5.22;87.43
4012;BME280;2020;48.682;9.024;2023-04-07T03:06:38;96258.72;;;5.25;87.60
4012;BME280;2020;48.682;9.024;2023-04-07T03:09:03;96258.53;;;5.17;87.57
4012;BME280;2020;48.682;9.024;2023-04-07T03:11:29;96263.44;;;5.20;87.22
4012;BME280;2020;48.682;9.024;2023-04-07T03:13:54;96261.53;;;5.22;86.75
4012;BME280;2020;48.682;9.024;2023-04-07T03:16:19;96258.28;;;5.20;87.44
4012;BME280;2020;48.682;9.024;2023-04-07T03:18:45;96248.22;;;5.17;86.92
4012;BME280;2020;48.682;9.024;2023-04-07T03:21:10;96247.06;;;5.10;87.20
4012;BME280;2020;48.682;9.024;2023-04-07T03:23:35;96247.06;;;5.10;87.76
4012;BME280;2020;48.682;9.024;2023-04-07T03:26:00;96238.41;;;5.11;86.73
4012;BME280;2020;48.682;9.024;2023-04-07T03:28:26;96239.19;;;5.11;88.07
4012;BME280;2020;48.682;9.024;2023-04-07T03:30:51;96231.59;;;5.10;88.25
4012;BME280;2020;48.682;9.024;2023-04-07T03:33:16;96233.50;;;5.08;86.92
4012;BME280;2020;48.682;9.024;2023-04-07T03:35:41;96239.09;;;5.13;86.94
4012;BME280;2020;48.682;9.024;2023-04-07T03:38:07;96238.94;;;5.15;87.36
4012;BME280;2020;48.682;9.024;2023-04-07T03:40:32;96235.31;;;5.17;87.43
4012;BME280;2020;48.682;9.024;2023-04-07T03:42:59;96236.00;;;5.19;86.81
4012;BME280;2020;48.682;9.024;2023-04-07T03:45:25;96233.53;;;5.18;86.67
4012;BME280;2020;48.682;9.024;2023-04-07T03:47:50;96230.16;;;5.17;87.43
4012;BME280;2020;48.682;9.024;2023-04-07T03:50:15;96240.03;;;5.12;87.19
4012;BME280;2020;48.682;9.024;2023-04-07T03:52:41;96227.81;;;5.14;87.77
4012;BME280;2020;48.682;9.024;2023-04-07T03:55:07;96226.94;;;5.04;87.81
4012;BME280;2020;48.682;9.024;2023-04-07T03:57:32;96223.72;;;5.11;88.43
4012;BME280;2020;48.682;9.024;2023-04-07T03:59:57;96226.69;;;5.07;87.58
4012;BME280;2020;48.682;9.024;2023-04-07T04:02:23;96227.19;;;5.01;87.75
4012;BME280;2020;48.682;9.024;2023-04-07T04:04:48;96231.03;;;5.06;88.43
4012;BME280;2020;48.682;9.024;2023-04-07T04:07:13;96220.41;;;5.00;87.37
4012;BME280;2020;48.682;9.024;2023-04-07T04:09:38;96222.75;;;5.03;88.15
4012;BME280;2020;48.682;9.024;2023-04-07T04:12:04;96219.22;;;5.04;88.93
4012;BME280;2020;48.682;9.024;2023-04-07T04:14:29;96214.91;;;4.93;87.55
4012;BME280;2020;48.682;9.024;2023-04-07T04:16:54;96215.50;;;4.96;87.99
4012;BME280;2020;48.682;9.024;2023-04-07T04:19:20;96215.09;;;5.01;87.91
4012;BME280;2020;48.682;9.024;2023-04-07T04:21:45;96215.00;;;5.03;87.18
4012;BME280;2020;48.682;9.024;2023-04-07T04:24:10;96221.16;;;4.90;86.21
4012;BME280;2020;48.682;9.024;2023-04-07T04:26:36;96214.16;;;5.02;87.19
4012;BME280;2020;48.682;9.024;2023-04-07T04:29:01;96213.91;;;5.05;87.23
4012;BME280;2020;48.682;9.024;2023-04-07T04:31:27;96213.66;;;5.08;86.77
4012;BME280;2020;48.682;9.024;2023-04-07T04:33:52;96210.28;;;5.08;85.80
4012;BME280;2020;48.682;9.024;2023-04-07T04:36:17;96206.56;;;5.01;86.38
4012;BME280;2020;48.682;9.024;2023-04-07T04:38:43;96209.16;;;5.01;86.49
4012;BME280;2020;48.682;9.024;2023-04-07T04:41:08;96206.81;;;4.97;87.37
4012;BME280;2020;48.682;9.024;2023-04-07T04:43:33;96207.63;;;4.98;87.60
4012;BME280;2020;48.682;9.024;2023-04-07T04:45:59;96215.25;;;5.00;87.37
4012;BME280;2020;48.682;9.024;2023-04-07T04:48:24;96214.06;;;5.04;87.51
4012;BME280;2020;48.682;9.024;2023-04-07T04:50:50;96213.09;;;5.05;87.23
4012;BME280;2020;48.682;9.024;2023-04-07T04:53:15;96209.84;;;5.03;87.69
4012;BME280;2020;48.682;9.024;2023-04-07T04:55:40;96213.09;;;5.05;88.24
4012;BME280;2020;48.682;9.024;2023-04-07T04:58:10;96215.19;;;5.11;88.18
4012;BME280;2020;48.682;9.024;2023-04-07T05:00:36;96211.47;;;5.04;87.60
4012;BME280;2020;48.682;9.024;2023-04-07T05:03:01;96212.41;;;5.03;88.62
4012;BME280;2020;48.682;9.024;2023-04-07T05:05:27;96213.22;;;5.03;87.96
4012;BME280;2020;48.682;9.024;2023-04-07T05:07:52;96214.16;;;5.02;88.70
4012;BME280;2020;48.682;9.024;2023-04-07T05:10:18;96217.44;;;5.04;89.19
4012;BME280;2020;48.682;9.024;2023-04-07T05:12:43;96209.06;;;5.12;89.12
4012;BME280;2020;48.682;9.024;2023-04-07T05:15:09;96212.84;;;5.08;87.54
4012;BME280;2020;48.682;9.024;2023-04-07T05:17:34;96213.09;;;5.05;87.78
4012;BME280;2020;48.682;9.024;2023-04-07T05:20:00;96221.78;;;5.04;87.63
4012;BME280;2020;48.682;9.024;2023-04-07T05:22:25;96220.44;;;5.09;87.91
4012;BME280;2020;48.682;9.024;2023-04-07T05:24:50;96221.13;;;5.11;88.19
4012;BME280;2020;48.682;9.024;2023-04-07T05:27:15;96214.50;;;5.09;88.97
4012;BME280;2020;48.682;9.024;2023-04-07T05:29:41;96212.59;;;5.11;88.81
4012;BME280;2020;48.682;9.024;2023-04-07T05:32:06;96227.50;;;5.07;89.00
4012;BME280;2020;48.682;9.024;2023-04-07T05:34:31;96219.91;;;5.06;89.27
4012;BME280;2020;48.682;9.024;2023-04-07T05:36:57;96219.91;;;5.06;89.87
4012;BME280;2020;48.682;9.024;2023-04-07T05:39:22;96219.91;;;5.06;90.14
4012;BME280;2020;48.682;9.024;2023-04-07T05:41:47;96216.13;;;5.10;90.31
4012;BME280;2020;48.682;9.024;2023-04-07T05:44:13;96217.63;;;5.12;89.38
4012;BME280;2020;48.682;9.024;2023-04-07T05:46:38;96220.50;;;5.19;88.55
4012;BME280;2020;48.682;9.024;2023-04-07T05:49:03;96226.22;;;5.23;87.94
4012;BME280;2020;48.682;9.024;2023-04-07T05:51:28;96226.66;;;5.28;88.40
4012;BME280;2020;48.682;9.024;2023-04-07T05:53:55;96221.38;;;5.30;88.92
4012;BME280;2020;48.682;9.024;2023-04-07T05:56:20;96228.44;;;5.27;87.75
4012;BME280;2020;48.682;9.024;2023-04-07T05:58:46;96231.44;;;5.33;87.78
4012;BME280;2020;48.682;9.024;2023-04-07T06:01:11;96225.16;;;5.25;88.52
4012;BME280;2020;48.682;9.024;2023-04-07T06:03:36;96216.47;;;5.26;87.70
4012;BME280;2020;48.682;9.024;2023-04-07T06:06:01;96219.06;;;5.26;88.40
4012;BME280;2020;48.682;9.024;2023-04-07T06:08:27;96225.03;;;5.27;88.25
4012;BME280;2020;48.682;9.024;2023-04-07T06:10:52;96219.50;;;5.32;85.76
4012;BME280;2020;48.682;9.024;2023-04-07T06:13:17;96223.72;;;5.33;85.97
4012;BME280;2020;48.682;9.024;2023-04-07T06:15:42;96222.06;;;5.32;85.69
4012;BME280;2020;48.682;9.024;2023-04-07T06:18:08;96223.28;;;5.27;85.96
4012;BME280;2020;48.682;9.024;2023-04-07T06:20:33;96226.28;;;5.33;87.20
4012;BME280;2020;48.682;9.024;2023-04-07T06:22:59;96228.50;;;5.37;86.45
4012;BME280;2020;48.682;9.024;2023-04-07T06:25:24;96224.56;;;5.43;86.26
4012;BME280;2020;48.682;9.024;2023-04-07T06:27:50;96221.72;;;5.46;86.26
4012;BME280;2020;48.682;9.024;2023-04-07T06:30:15;96223.09;;;5.50;85.36
4012;BME280;2020;48.682;9.024;2023-04-07T06:32:41;96227.31;;;5.51;85.05
4012;BME280;2020;48.682;9.024;2023-04-07T06:35:06;96225.84;;;5.59;84.99
4012;BME280;2020;48.682;9.024;2023-04-07T06:37:32;96224.09;;;5.59;84.69
4012;BME280;2020;48.682;9.024;2023-04-07T06:39:57;96223.41;;;5.57;84.95
4012;BME280;2020;48.682;9.024;2023-04-07T06:42:22;96223.69;;;5.64;83.96
4012;BME280;2020;48.682;9.024;2023-04-07T06:44:48;96216.91;;;5.63;83.13
4012;BME280;2020;48.682;9.024;2023-04-07T06:47:13;96211.72;;;5.63;83.54
4012;BME280;2020;48.682;9.024;2023-04-07T06:49:38;96212.59;;;5.73;84.22
4012;BME280;2020;48.682;9.024;2023-04-07T06:52:04;96218.00;;;5.70;84.02
4012;BME280;2020;48.682;9.024;2023-04-07T06:54:30;96210.69;;;5.75;83.14
4012;BME280;2020;48.682;9.024;2023-04-07T06:56:55;96211.63;;;5.74;83.83
4012;BME280;2020;48.682;9.024;2023-04-07T06:59:21;96227.28;;;5.82;83.09
4012;BME280;2020;48.682;9.024;2023-04-07T07:01:46;96221.06;;;5.85;83.05
4012;BME280;2020;48.682;9.024;2023-04-07T07:04:13;96223.50;;;5.86;82.65
4012;BME280;2020;48.682;9.024;2023-04-07T07:06:38;96223.22;;;5.90;82.47
4012;BME280;2020;48.682;9.024;2023-04-07T07:09:03;96224.94;;;6.00;82.83
4012;BME280;2020;48.682;9.024;2023-04-07T07:11:29;96220.88;;;6.08;81.23
4012;BME280;2020;48.682;9.024;2023-04-07T07:13:54;96224.53;;;6.05;80.18
4012;BME280;2020;48.682;9.024;2023-04-07T07:16:19;96223.88;;;6.13;79.86
4012;BME280;2020;48.682;9.024;2023-04-07T07:18:47;96218.72;;;6.23;81.37
4012;BME280;2020;48.682;9.024;2023-04-07T07:21:13;96218.72;;;6.23;80.75
4012;BME280;2020;48.682;9.024;2023-04-07T07:23:38;96222.53;;;6.19;80.44
4012;BME280;2020;48.682;9.024;2023-04-07T07:26:03;96227.00;;;6.17;81.47
4012;BME280;2020;48.682;9.024;2023-04-07T07:28:29;96224.16;;;6.20;81.80
4012;BME280;2020;48.682;9.024;2023-04-07T07:30:54;96219.00;;;6.20;81.72
4012;BME280;2020;48.682;9.024;2023-04-07T07:33:20;96221.44;;;6.31;82.15
4012;BME280;2020;48.682;9.024;2023-04-07T07:35:46;96218.75;;;6.42;80.70
4012;BME280;2020;48.682;9.024;2023-04-07T07:38:12;96216.84;;;6.64;80.73
4012;BME280;2020;48.682;9.024;2023-04-07T07:40:37;96217.09;;;6.91;80.25
4012;BME280;2020;48.682;9.024;2023-04-07T07:43:02;96217.69;;;7.32;79.73
4012;BME280;2020;48.682;9.024;2023-04-07T07:45:27;96217.47;;;7.53;78.83
4012;BME280;2020;48.682;9.024;2023-04-07T07:47:53;96229.00;;;7.97;78.92
4012;BME280;2020;48.682;9.024;2023-04-07T07:50:18;96225.63;;;8.14;76.07
4012;BME280;2020;48.682;9.024;2023-04-07T07:52:43;96225.38;;;8.54;75.97
4012;BME280;2020;48.682;9.024;2023-04-07T07:55:09;96230.28;;;8.75;73.50
4012;BME280;2020;48.682;9.024;2023-04-07T07:57:35;96225.06;;;8.93;74.07
4012;BME280;2020;48.682;9.024;2023-04-07T08:00:01;96221.69;;;9.19;76.00
4012;BME280;2020;48.682;9.024;2023-04-07T08:02:27;96216.22;;;9.30;71.15
4012;BME280;2020;48.682;9.024;2023-04-07T08:04:56;96217.75;;;9.15;70.90
4012;BME280;2020;48.682;9.024;2023-04-07T08:07:21;96216.53;;;9.27;72.86
4012;BME280;2020;48.682;9.024;2023-04-07T08:09:46;96218.97;;;9.55;75.07
4012;BME280;2020;48.682;9.024;2023-04-07T08:12:12;96215.16;;;9.76;71.61
4012;BME280;2020;48.682;9.024;2023-04-07T08:14:37;96219.19;;;10.05;72.66
4012;BME280;2020;48.682;9.024;2023-04-07T08:17:02;96220.16;;;10.04;71.91
4012;BME280;2020;48.682;9.024;2023-04-07T08:19:28;96217.94;;;10.34;72.83
4012;BME280;2020;48.682;9.024;2023-04-07T08:21:53;96215.47;;;10.32;66.39
4012;BME280;2020;48.682;9.024;2023-04-07T08:24:18;96218.66;;;10.52;72.44
4012;BME280;2020;48.682;9.024;2023-04-07T08:26:43;96225.81;;;10.75;69.80
4012;BME280;2020;48.682;9.024;2023-04-07T08:29:09;96221.19;;;10.36;68.64
4012;BME280;2020;48.682;9.024;2023-04-07T08:31:35;96218.53;;;10.03;68.28
4012;BME280;2020;48.682;9.024;2023-04-07T08:34:00;96226.94;;;9.97;69.24
4012;BME280;2020;48.682;9.024;2023-04-07T08:36:26;96225.16;;;9.97;70.92
4012;BME280;2020;48.682;9.024;2023-04-07T08:38:52;96223.28;;;10.24;68.81
4012;BME280;2020;48.682;9.024;2023-04-07T08:41:23;96240.97;;;10.12;69.20
4012;BME280;2020;48.682;9.024;2023-04-07T08:43:51;96232.75;;;9.90;68.23
4012;BME280;2020;48.682;9.024;2023-04-07T08:46:19;96235.28;;;9.74;68.91
4012;BME280;2020;48.682;9.024;2023-04-07T08:48:48;96238.53;;;9.76;70.09
4012;BME280;2020;48.682;9.024;2023-04-07T08:51:21;96237.88;;;9.74;71.57
4012;BME280;2020;48.682;9.024;2023-04-07T08:53:52;96235.28;;;9.74;69.34
4012;BME280;2020;48.682;9.024;2023-04-07T08:56:19;96236.88;;;9.66;70.02
4012;BME280;2020;48.682;9.024;2023-04-07T08:58:47;96236.38;;;9.98;70.08
4012;BME280;2020;48.682;9.024;2023-04-07T09:01:13;96229.50;;;9.88;66.32
4012;BME280;2020;48.682;9.024;2023-04-07T09:03:38;96235.66;;;9.87;68.01
4012;BME280;2020;48.682;9.024;2023-04-07T09:06:05;96242.97;;;9.84;67.17
4012;BME280;2020;48.682;9.024;2023-04-07T09:08:30;96246.34;;;9.76;65.98
4012;BME280;2020;48.682;9.024;2023-04-07T09:10:56;96238.41;;;9.77;67.74
4012;BME280;2020;48.682;9.024;2023-04-07T09:13:23;96239.56;;;9.91;68.44
4012;BME280;2020;48.682;9.024;2023-04-07T09:15:49;96242.66;;;10.30;68.29
4012;BME280;2020;48.682;9.024;2023-04-07T09:18:15;96237.84;;;10.76;67.50
4012;BME280;2020;48.682;9.024;2023-04-07T09:25:53;96228.06;;;11.36;61.12
4012;BME280;2020;48.682;9.024;2023-04-07T09:28:18;96234.56;;;11.89;64.20
4012;BME280;2020;48.682;9.024;2023-04-07T09:30:51;96221.69;;;11.95;58.98
4012;BME280;2020;48.682;9.024;2023-04-07T09:33:25;96223.63;;;11.93;59.28
4012;BME280;2020;48.682;9.024;2023-04-07T09:35:51;96221.97;;;12.09;60.64
4012;BME280;2020;48.682;9.024;2023-04-07T09:38:21;96223.09;;;12.38;61.92
4012;BME280;2020;48.682;9.024;2023-04-07T09:40:46;96223.91;;;12.70;59.63
4012;BME280;2020;48.682;9.024;2023-04-07T09:43:16;96227.22;;;12.55;57.09
4012;BME280;2020;48.682;9.024;2023-04-07T09:45:42;96217.53;;;12.41;55.81
4012;BME280;2020;48.682;9.024;2023-04-07T09:48:18;96220.81;;;12.11;55.94
4012;BME280;2020;48.682;9.024;2023-04-07T09:50:44;96225.34;;;11.78;57.93
4012;BME280;2020;48.682;9.024;2023-04-07T09:53:13;96220.50;;;11.58;56.63
4012;BME280;2020;48.682;9.024;2023-04-07T09:55:39;96219.91;;;11.39;56.95
4012;BME280;2020;48.682;9.024;2023-04-07T09:58:06;96216.34;;;11.32;57.48
4012;BME280;2020;48.682;9.024;2023-04-07T10:00:31;96217.97;;;11.33;58.65
4012;BME280;2020;48.682;9.024;2023-04-07T10:02:56;96220.22;;;11.45;56.24
4012;BME280;2020;48.682;9.024;2023-04-07T10:05:22;96207.56;;;11.33;53.69
4012;BME280;2020;48.682;9.024;2023-04-07T10:07:48;96216.84;;;11.19;58.12
4012;BME280;2020;48.682;9.024;2023-04-07T10:10:13;96226.78;;;11.32;60.84
4012;BME280;2020;48.682;9.024;2023-04-07T10:12:40;96220.22;;;11.45;60.73
4012;BME280;2020;48.682;9.024;2023-04-07T10:15:06;96220.25;;;11.28;60.48
4012;BME280;2020;48.682;9.024;2023-04-07T10:17:32;96219.59;;;11.18;60.56
4012;BME280;2020;48.682;9.024;2023-04-07T10:19:58;96225.13;;;11.15;62.16
4012;BME280;2020;48.682;9.024;2023-04-07T10:22:26;96228.56;;;11.23;61.40
4012;BME280;2020;48.682;9.024;2023-04-07T10:25:01;96226.78;;;10.66;63.59
4012;BME280;2020;48.682;9.024;2023-04-07T10:27:34;96235.50;;;10.32;66.96
4012;BME280;2020;48.682;9.024;2023-04-07T10:30:02;96233.59;;;9.99;68.88
4012;BME280;2020;48.682;9.024;2023-04-07T10:32:29;96237.63;;;9.93;70.76
4012;BME280;2020;48.682;9.024;2023-04-07T10:34:56;96243.78;;;9.84;74.68
4012;BME280;2020;48.682;9.024;2023-04-07T10:37:23;96240.78;;;9.71;75.31
4012;BME280;2020;48.682;9.024;2023-04-07T10:39:50;96241.06;;;9.59;76.83
4012;BME280;2020;48.682;9.024;2023-04-07T10:45:06;96253.03;;;8.99;78.72
4012;BME280;2020;48.682;9.024;2023-04-07T10:47:33;96254.59;;;8.92;79.31
4012;BME280;2020;48.682;9.024;2023-04-07T10:50:17;96242.59;;;8.91;82.13
4012;BME280;2020;48.682;9.024;2023-04-07T10:52:44;96243.78;;;8.78;82.10
4012;BME280;2020;48.682;9.024;2023-04-07T10:55:30;96251.78;;;8.67;82.82
4012;BME280;2020;48.682;9.024;2023-04-07T10:58:24;96249.94;;;8.59;83.95
4012;BME280;2020;48.682;9.024;2023-04-07T11:03:21;96253.44;;;8.40;85.98
4012;BME280;2020;48.682;9.024;2023-04-07T11:05:47;96256.50;;;8.54;86.00
4012;BME280;2020;48.682;9.024;2023-04-07T11:08:12;96254.59;;;8.56;84.07
4012;BME280;2020;48.682;9.024;2023-04-07T11:10:38;96262.91;;;8.59;83.75
4012;BME280;2020;48.682;9.024;2023-04-07T11:13:05;96274.78;;;8.62;83.02
4012;BME280;2020;48.682;9.024;2023-04-07T11:15:31;96281.59;;;8.63;83.32
4012;BME280;2020;48.682;9.024;2023-04-07T11:18:19;96277.75;;;8.67;86.11
4012;BME280;2020;48.682;9.024;2023-04-07T11:20:45;96285.81;;;8.36;83.67
4012;BME280;2020;48.682;9.024;2023-04-07T11:23:12;96285.63;;;8.19;86.33
4012;BME280;2020;48.682;9.024;2023-04-07T11:25:37;96292.56;;;7.91;88.84
4012;BME280;2020;48.682;9.024;2023-04-07T11:28:03;96290.72;;;7.83;91.01
4012;BME280;2020;48.682;9.024;2023-04-07T11:30:28;96294.00;;;7.75;91.92
4012;BME280;2020;48.682;9.024;2023-04-07T11:32:55;96295.13;;;7.73;92.52
4012;BME280;2020;48.682;9.024;2023-04-07T11:35:22;96293.53;;;7.52;94.19
4012;BME280;2020;48.682;9.024;2023-04-07T11:37:47;96301.47;;;7.41;92.13
4012;BME280;2020;48.682;9.024;2023-04-07T11:40:12;96296.56;;;7.38;93.20
4012;BME280;2020;48.682;9.024;2023-04-07T11:42:41;96296.84;;;7.35;94.41
4012;BME280;2020;48.682;9.024;2023-04-07T11:45:17;96300.91;;;7.47;95.66
4012;BME280;2020;48.682;9.024;2023-04-07T11:47:42;96302.03;;;7.35;95.50
4012;BME280;2020;48.682;9.024;2023-04-07T11:50:08;96305.03;;;7.20;96.56
4012;BME280;2020;48.682;9.024;2023-04-07T11:52:43;96306.53;;;7.13;96.30
4012;BME280;2020;48.682;9.024;2023-04-07T11:55:22;96305.56;;;7.34;98.87
4012;BME280;2020;48.682;9.024;2023-04-07T11:57:50;96296.56;;;7.38;96.78
4012;BME280;2020;48.682;9.024;2023-04-07T12:00:16;96305.94;;;7.49;97.24
4012;BME280;2020;48.682;9.024;2023-04-07T12:02:42;96301.72;;;7.57;96.77
4012;BME280;2020;48.682;9.024;2023-04-07T12:05:08;96303.91;;;7.52;97.75
4012;BME280;2020;48.682;9.024;2023-04-07T12:07:35;96303.63;;;7.45;95.76
4012;BME280;2020;48.682;9.024;2023-04-07T12:10:23;96304.22;;;7.29;96.89
4012;BME280;2020;48.682;9.024;2023-04-07T12:12:51;96297.94;;;7.42;100.00
4012;BME280;2020;48.682;9.024;2023-04-07T12:15:17;96298.22;;;7.39;99.61
4012;BME280;2020;48.682;9.024;2023-04-07T12:17:46;96289.75;;;7.37;100.00
4012;BME280;2020;48.682;9.024;2023-04-07T12:20:12;96293.16;;;7.47;100.00
4012;BME280;2020;48.682;9.024;2023-04-07T12:22:38;96297.09;;;7.51;98.89
4012;BME280;2020;48.682;9.024;2023-04-07T12:25:04;96300.06;;;7.56;97.79
4012;BME280;2020;48.682;9.024;2023-04-07T12:27:29;96297.53;;;7.74;99.94
4012;BME280;2020;48.682;9.024;2023-04-07T12:29:55;96296.56;;;7.85;99.70
4012;BME280;2020;48.682;9.024;2023-04-07T12:32:21;96307.59;;;7.87;99.50
4012;BME280;2020;48.682;9.024;2023-04-07T12:34:46;96306.38;;;8.19;100.00
4012;BME280;2020;48.682;9.024;2023-04-07T12:37:12;96312.41;;;8.38;100.00
4012;BME280;2020;48.682;9.024;2023-04-07T12:39:37;96319.31;;;8.47;100.00
4012;BME280;2020;48.682;9.024;2023-04-07T12:42:02;96322.88;;;8.46;100.00
4012;BME280;2020;48.682;9.024;2023-04-07T12:44:27;96321.06;;;8.29;97.08
4012;BME280;2020;48.682;9.024;2023-04-07T12:46:53;96321.16;;;8.09;96.02
4012;BME280;2020;48.682;9.024;2023-04-07T12:49:18;96322.31;;;7.87;95.68
4012;BME280;2020;48.682;9.024;2023-04-07T12:51:43;96318.56;;;7.71;99.10
4012;BME280;2020;48.682;9.024;2023-04-07T12:54:08;96309.31;;;7.69;98.73
4012;BME280;2020;48.682;9.024;2023-04-07T12:56:35;96312.00;;;7.77;97.46
4012;BME280;2020;48.682;9.024;2023-04-07T12:59:01;96308.84;;;7.83;98.99
4012;BME280;2020;48.682;9.024;2023-04-07T13:01:26;96306.81;;;7.77;96.91
4012;BME280;2020;48.682;9.024;2023-04-07T13:03:51;96310.09;;;7.79;98.50
4012;BME280;2020;48.682;9.024;2023-04-07T13:06:16;96302.53;;;7.96;100.00
4012;BME280;2020;48.682;9.024;2023-04-07T13:08:42;96312.72;;;8.07;99.12
4012;BME280;2020;48.682;9.024;2023-04-07T13:11:07;96308.28;;;7.89;96.22
4012;BME280;2020;48.682;9.024;2023-04-07T13:13:33;96313.47;;;7.80;94.35
4012;BME280;2020;48.682;9.024;2023-04-07T13:15:58;96317.13;;;7.97;96.78
4012;BME280;2020;48.682;9.024;2023-04-07T13:18:23;96310.03;;;7.99;95.26
4012;BME280;2020;48.682;9.024;2023-04-07T13:20:49;96309.94;;;8.18;97.26
4012;BME280;2020;48.682;9.024;2023-04-07T13:23:14;96320.19;;;8.10;92.40
4012;BME280;2020;48.682;9.024;2023-04-07T13:25:40;96304.72;;;8.00;95.59
4012;BME280;2020;48.682;9.024;2023-04-07T13:28:05;96306.19;;;8.03;97.14
4012;BME280;2020;48.682;9.024;2023-04-07T13:30:31;96317.91;;;8.07;96.32
4012;BME280;2020;48.682;9.024;2023-04-07T13:32:57;96313.19;;;8.20;96.57
4012;BME280;2020;48.682;9.024;2023-04-07T13:35:22;96309.94;;;8.18;95.55
4012;BME280;2020;48.682;9.024;2023-04-07T13:37:47;96314.31;;;8.18;97.38
4012;BME280;2020;48.682;9.024;2023-04-07T13:40:12;96314.81;;;8.22;96.97
4012;BME280;2020;48.682;9.024;2023-04-07T13:42:38;96314.81;;;8.22;97.78
4012;BME280;2020;48.682;9.024;2023-04-07T13:45:04;96310.97;;;8.26;95.35